createdAt,value
2019-03-22T00:00:53.873Z,19.83
2019-03-22T00:01:53.793Z,19.84
2019-03-22T00:02:53.726Z,19.83
2019-03-22T00:04:53.796Z,19.82
2019-03-22T00:05:53.914Z,19.81
2019-03-22T00:06:53.821Z,19.81
2019-03-22T00:07:53.825Z,19.8
2019-03-22T00:09:53.861Z,19.79
2019-03-22T00:10:53.844Z,19.79
2019-03-22T00:11:53.892Z,19.79
2019-03-22T00:12:53.994Z,19.78
2019-03-22T00:14:53.910Z,19.77
2019-03-22T00:15:53.912Z,19.77
2019-03-22T00:16:53.943Z,19.76
2019-03-22T00:17:53.694Z,19.76
2019-03-22T00:19:53.702Z,19.75
2019-03-22T00:20:53.802Z,19.75
2019-03-22T00:21:53.825Z,19.74
2019-03-22T00:22:53.764Z,19.75
2019-03-22T00:25:53.874Z,19.73
2019-03-22T00:26:53.772Z,19.72
2019-03-22T00:28:53.837Z,19.71
2019-03-22T00:29:53.872Z,19.71
2019-03-22T00:30:53.932Z,19.71
2019-03-22T00:31:53.851Z,19.7
2019-03-22T00:33:53.865Z,19.69
2019-03-22T00:34:53.767Z,19.68
2019-03-22T00:36:53.738Z,19.67
2019-03-22T00:38:53.738Z,19.67
2019-03-22T00:40:53.834Z,19.66
2019-03-22T00:41:53.821Z,19.67
2019-03-22T00:42:53.817Z,19.66
2019-03-22T00:43:53.876Z,19.65
2019-03-22T00:45:53.872Z,19.64
2019-03-22T00:46:53.938Z,19.65
2019-03-22T00:47:53.841Z,19.64
2019-03-22T00:48:54.319Z,19.62
2019-03-22T00:51:54.018Z,19.63
2019-03-22T00:52:53.930Z,19.62
2019-03-22T00:54:53.684Z,19.62
2019-03-22T00:55:53.670Z,19.61
2019-03-22T00:56:53.679Z,19.6
2019-03-22T00:57:53.702Z,19.61
2019-03-22T01:00:53.781Z,19.59
2019-03-22T01:02:53.841Z,19.58
2019-03-22T01:03:54.929Z,19.57
2019-03-22T01:05:53.829Z,19.57
2019-03-22T01:06:53.958Z,19.56
2019-03-22T01:07:54.011Z,19.56
2019-03-22T01:08:53.946Z,19.56
2019-03-22T01:10:54.249Z,19.56
2019-03-22T01:11:54.170Z,19.55
2019-03-22T01:12:53.688Z,19.54
2019-03-22T01:13:53.682Z,19.55
2019-03-22T01:16:53.712Z,19.54
2019-03-22T01:17:53.755Z,19.53
2019-03-22T01:18:53.806Z,19.53
2019-03-22T01:19:53.769Z,19.52
2019-03-22T01:21:53.811Z,19.51
2019-03-22T01:22:53.883Z,19.51
2019-03-22T01:24:53.896Z,19.5
2019-03-22T01:25:53.849Z,19.5
2019-03-22T01:27:53.994Z,19.49
2019-03-22T01:28:53.881Z,19.49
2019-03-22T01:29:53.909Z,19.48
2019-03-22T01:30:53.623Z,19.49
2019-03-22T01:32:54.120Z,19.47
2019-03-22T01:33:53.669Z,19.47
2019-03-22T01:34:53.690Z,19.46
2019-03-22T01:35:53.819Z,19.46
2019-03-22T01:37:53.729Z,19.46
2019-03-22T01:39:53.943Z,19.45
2019-03-22T01:40:53.950Z,19.45
2019-03-22T01:41:53.769Z,19.44
2019-03-22T01:42:53.806Z,19.44
2019-03-22T01:44:53.949Z,19.43
2019-03-22T01:45:53.837Z,19.42
2019-03-22T01:46:53.833Z,19.42
2019-03-22T01:47:53.983Z,19.43
2019-03-22T01:49:53.668Z,19.41
2019-03-22T01:51:53.680Z,19.4
2019-03-22T01:52:53.714Z,19.4
2019-03-22T01:53:53.802Z,19.39
2019-03-22T01:54:53.776Z,19.39
2019-03-22T01:58:53.786Z,19.39
2019-03-22T01:59:53.822Z,19.38
2019-03-22T02:00:53.942Z,19.38
2019-03-22T02:01:53.822Z,19.38
2019-03-22T02:03:53.864Z,19.37
2019-03-22T02:05:53.964Z,19.35
2019-03-22T02:06:53.880Z,19.35
2019-03-22T02:08:53.652Z,19.35
2019-03-22T02:09:53.648Z,19.35
2019-03-22T02:10:53.779Z,19.34
2019-03-22T02:11:53.679Z,19.34
2019-03-22T02:14:53.678Z,19.32
2019-03-22T02:15:54.130Z,19.32
2019-03-22T02:17:53.745Z,19.32
2019-03-22T02:18:53.745Z,19.32
2019-03-22T02:19:53.752Z,19.31
2019-03-22T02:20:53.838Z,19.31
2019-03-22T02:22:53.900Z,19.3
2019-03-22T02:23:53.816Z,19.3
2019-03-22T02:25:53.863Z,19.3
2019-03-22T02:26:54.032Z,19.3
2019-03-22T02:28:03.630Z,19.3
2019-03-22T02:29:53.697Z,19.29
2019-03-22T02:30:53.718Z,19.28
2019-03-22T02:31:53.694Z,19.29
2019-03-22T02:32:53.728Z,19.29
2019-03-22T02:34:53.848Z,19.27
2019-03-22T02:35:53.789Z,19.28
2019-03-22T02:36:53.792Z,19.27
2019-03-22T02:37:53.887Z,19.28
2019-03-22T02:40:53.817Z,19.25
2019-03-22T02:41:53.874Z,19.26
2019-03-22T02:42:53.880Z,19.24
2019-03-22T02:43:54.797Z,19.24
2019-03-22T02:46:53.732Z,19.24
2019-03-22T02:48:53.631Z,19.24
2019-03-22T02:49:53.673Z,19.23
2019-03-22T02:50:56.102Z,19.24
2019-03-22T02:51:53.631Z,19.23
2019-03-22T02:53:53.678Z,19.22
2019-03-22T02:54:53.733Z,19.21
2019-03-22T02:55:53.901Z,19.22
2019-03-22T02:56:53.741Z,19.21
2019-03-22T02:58:54.134Z,19.21
2019-03-22T02:59:53.807Z,19.21
2019-03-22T03:01:53.839Z,19.2
2019-03-22T03:02:53.841Z,19.2
2019-03-22T03:03:53.663Z,19.2
2019-03-22T03:05:53.810Z,19.2
2019-03-22T03:06:53.674Z,19.19
2019-03-22T03:07:53.682Z,19.18
2019-03-22T03:08:53.762Z,19.18
2019-03-22T03:10:53.855Z,19.18
2019-03-22T03:12:54.070Z,19.18
2019-03-22T03:13:53.775Z,19.17
2019-03-22T03:16:53.886Z,19.17
2019-03-22T03:17:53.937Z,19.17
2019-03-22T03:18:53.960Z,19.16
2019-03-22T03:19:54.041Z,19.16
2019-03-22T03:21:53.729Z,19.15
2019-03-22T03:22:53.615Z,19.15
2019-03-22T03:23:53.610Z,19.15
2019-03-22T03:24:53.659Z,19.15
2019-03-22T03:26:53.840Z,19.14
2019-03-22T03:27:53.686Z,19.14
2019-03-22T03:28:53.704Z,19.14
2019-03-22T03:29:53.723Z,19.14
2019-03-22T03:31:53.769Z,19.13
2019-03-22T03:32:53.902Z,19.13
2019-03-22T03:33:53.770Z,19.12
2019-03-22T03:34:53.864Z,19.12
2019-03-22T03:36:53.813Z,19.11
2019-03-22T03:37:53.915Z,19.11
2019-03-22T03:38:53.857Z,19.1
2019-03-22T03:39:53.693Z,19.1
2019-03-22T03:41:53.907Z,19.1
2019-03-22T03:43:53.687Z,19.08
2019-03-22T03:44:53.704Z,19.09
2019-03-22T03:45:53.723Z,19.09
2019-03-22T03:46:53.700Z,19.08
2019-03-22T03:48:53.795Z,19.08
2019-03-22T03:49:53.913Z,19.07
2019-03-22T03:50:53.787Z,19.07
2019-03-22T03:51:53.818Z,19.07
2019-03-22T03:53:53.843Z,19.07
2019-03-22T03:55:53.870Z,19.06
2019-03-22T03:56:53.886Z,19.06
2019-03-22T03:57:53.583Z,19.05
2019-03-22T03:58:53.733Z,19.06
2019-03-22T04:00:53.643Z,19.05
2019-03-22T04:01:53.660Z,19.06
2019-03-22T04:03:53.671Z,19.04
2019-03-22T04:04:53.687Z,19.04
2019-03-22T04:05:53.711Z,19.04
2019-03-22T04:06:53.742Z,19.03
2019-03-22T04:08:53.741Z,19.03
2019-03-22T04:09:53.777Z,19.03
2019-03-22T04:10:53.772Z,19.04
2019-03-22T04:13:53.854Z,19.02
2019-03-22T04:14:53.745Z,19.02
2019-03-22T04:15:53.646Z,19.01
2019-03-22T04:16:53.669Z,19.01
2019-03-22T04:18:53.671Z,19
2019-03-22T04:19:53.675Z,19
2019-03-22T04:20:53.801Z,18.99
2019-03-22T04:21:53.723Z,18.99
2019-03-22T04:23:53.800Z,18.99
2019-03-22T04:26:53.892Z,18.98
2019-03-22T04:27:53.840Z,18.98
2019-03-22T04:29:06.445Z,18.99
2019-03-22T04:29:53.831Z,18.98
2019-03-22T04:31:53.861Z,18.98
2019-03-22T04:32:53.860Z,18.97
2019-03-22T04:33:53.567Z,18.98
2019-03-22T04:34:53.608Z,18.97
2019-03-22T04:36:53.630Z,18.97
2019-03-22T04:37:53.715Z,18.97
2019-03-22T04:38:53.709Z,18.97
2019-03-22T04:39:53.736Z,18.98
2019-03-22T04:41:53.688Z,18.98
2019-03-22T04:42:53.700Z,18.99
2019-03-22T04:44:53.737Z,18.99
2019-03-22T04:45:53.762Z,18.99
2019-03-22T04:46:53.755Z,19.01
2019-03-22T04:47:53.791Z,19.01
2019-03-22T04:49:53.891Z,19.02
2019-03-22T04:50:53.589Z,19.04
2019-03-22T04:51:53.611Z,19.04
2019-03-22T04:52:53.637Z,19.05
2019-03-22T04:54:53.651Z,19.07
2019-03-22T04:55:53.746Z,19.08
2019-03-22T04:56:53.680Z,19.11
2019-03-22T04:57:53.700Z,19.12
2019-03-22T04:59:53.739Z,19.16
2019-03-22T05:02:53.769Z,19.24
2019-03-22T05:03:53.771Z,19.26
2019-03-22T05:04:53.770Z,19.28
2019-03-22T05:05:53.818Z,19.31
2019-03-22T05:07:53.901Z,19.33
2019-03-22T05:08:53.818Z,19.35
2019-03-22T05:09:54.105Z,19.39
2019-03-22T05:10:53.636Z,19.39
2019-03-22T05:12:53.692Z,19.43
2019-03-22T05:13:53.633Z,19.45
2019-03-22T05:14:53.637Z,19.47
2019-03-22T05:15:53.661Z,19.47
2019-03-22T05:17:53.670Z,19.52
2019-03-22T05:18:53.659Z,19.53
2019-03-22T05:19:53.704Z,19.56
2019-03-22T05:20:53.754Z,19.57
2019-03-22T05:22:53.751Z,19.61
2019-03-22T05:23:53.727Z,19.62
2019-03-22T05:24:53.807Z,19.64
2019-03-22T05:25:53.860Z,19.65
2019-03-22T05:28:53.701Z,19.69
2019-03-22T05:29:53.673Z,19.72
2019-03-22T05:30:53.634Z,19.72
2019-03-22T05:31:53.792Z,19.74
2019-03-22T05:33:53.786Z,19.77
2019-03-22T05:34:53.665Z,19.79
2019-03-22T05:35:53.717Z,19.8
2019-03-22T05:38:53.880Z,19.83
2019-03-22T05:39:53.763Z,19.84
2019-03-22T05:40:53.772Z,19.86
2019-03-22T05:41:53.880Z,19.87
2019-03-22T05:43:53.827Z,19.9
2019-03-22T05:44:53.933Z,19.91
2019-03-22T05:46:53.543Z,19.93
2019-03-22T05:47:53.688Z,19.96
2019-03-22T05:48:53.721Z,19.95
2019-03-22T05:49:53.711Z,19.96
2019-03-22T05:53:54.136Z,20
2019-03-22T05:54:53.753Z,20.02
2019-03-22T05:55:53.768Z,20.03
2019-03-22T05:56:53.691Z,20.03
2019-03-22T05:58:53.701Z,20.07
2019-03-22T05:59:53.710Z,20.09
2019-03-22T06:01:53.782Z,20.11
2019-03-22T06:02:53.891Z,20.11
2019-03-22T06:04:53.601Z,20.13
2019-03-22T06:05:53.626Z,20.15
2019-03-22T06:06:53.621Z,20.16
2019-03-22T06:07:53.691Z,20.18
2019-03-22T06:09:53.742Z,20.19
2019-03-22T06:10:53.770Z,20.23
2019-03-22T06:11:53.666Z,20.22
2019-03-22T06:13:53.809Z,20.23
2019-03-22T06:14:53.815Z,20.24
2019-03-22T06:15:53.894Z,20.26
2019-03-22T06:16:53.816Z,20.27
2019-03-22T06:18:53.781Z,20.3
2019-03-22T06:19:53.787Z,20.29
2019-03-22T06:20:53.870Z,20.31
2019-03-22T06:21:53.909Z,20.32
2019-03-22T06:24:53.706Z,20.37
2019-03-22T06:25:53.584Z,20.38
2019-03-22T06:26:53.592Z,20.39
2019-03-22T06:27:53.695Z,20.38
2019-03-22T06:29:54.706Z,20.37
2019-03-22T06:30:53.597Z,20.35
2019-03-22T06:31:53.662Z,20.36
2019-03-22T06:33:53.839Z,20.33
2019-03-22T06:34:53.709Z,20.32
2019-03-22T06:35:53.719Z,20.32
2019-03-22T06:37:53.886Z,20.33
2019-03-22T06:40:53.599Z,20.32
2019-03-22T06:41:53.589Z,20.33
2019-03-22T06:42:53.679Z,20.34
2019-03-22T06:43:53.599Z,20.35
2019-03-22T06:45:53.493Z,20.35
2019-03-22T06:46:53.667Z,20.37
2019-03-22T06:47:53.781Z,20.37
2019-03-22T06:49:53.694Z,20.38
2019-03-22T06:50:53.717Z,20.4
2019-03-22T06:51:53.721Z,20.41
2019-03-22T06:52:53.856Z,20.42
2019-03-22T06:54:53.783Z,20.42
2019-03-22T06:55:53.771Z,20.44
2019-03-22T06:56:53.948Z,20.44
2019-03-22T06:58:53.606Z,20.47
2019-03-22T07:00:53.558Z,20.47
2019-03-22T07:01:53.612Z,20.47
2019-03-22T07:05:53.605Z,20.5
2019-03-22T07:07:53.642Z,20.51
2019-03-22T07:08:53.639Z,20.52
2019-03-22T07:09:53.693Z,20.53
2019-03-22T07:11:53.536Z,20.54
2019-03-22T07:13:53.736Z,20.53
2019-03-22T07:14:53.725Z,20.53
2019-03-22T07:15:53.744Z,20.54
2019-03-22T07:16:53.558Z,20.55
2019-03-22T07:19:53.501Z,20.56
2019-03-22T07:20:53.868Z,20.55
2019-03-22T07:22:53.640Z,20.56
2019-03-22T07:23:53.708Z,20.57
2019-03-22T07:24:53.663Z,20.57
2019-03-22T07:25:53.777Z,20.57
2019-03-22T07:27:53.699Z,20.58
2019-03-22T07:29:53.724Z,20.6
2019-03-22T07:30:53.758Z,20.59
2019-03-22T07:31:54.037Z,20.59
2019-03-22T07:32:53.781Z,20.6
2019-03-22T07:34:53.554Z,20.62
2019-03-22T07:35:53.559Z,20.62
2019-03-22T07:36:53.528Z,20.63
2019-03-22T07:39:53.602Z,20.63
2019-03-22T07:41:54.098Z,20.65
2019-03-22T07:42:53.627Z,20.65
2019-03-22T07:44:53.677Z,20.67
2019-03-22T07:45:53.779Z,20.72
2019-03-22T07:46:53.738Z,20.77
2019-03-22T07:47:55.794Z,20.75
2019-03-22T07:50:53.740Z,20.76
2019-03-22T07:51:53.556Z,20.76
2019-03-22T07:52:53.550Z,20.77
2019-03-22T07:54:53.590Z,20.76
2019-03-22T07:56:53.618Z,20.8
2019-03-22T07:58:53.630Z,20.81
2019-03-22T07:59:53.661Z,20.82
2019-03-22T08:00:53.768Z,20.82
2019-03-22T08:03:54.047Z,20.85
2019-03-22T08:04:53.815Z,20.87
2019-03-22T08:05:53.745Z,20.87
2019-03-22T08:06:53.580Z,20.89
2019-03-22T08:08:53.525Z,20.88
2019-03-22T08:09:53.724Z,20.91
2019-03-22T08:10:53.696Z,20.9
2019-03-22T08:11:53.553Z,20.91
2019-03-22T08:13:53.571Z,20.91
2019-03-22T08:14:53.509Z,20.93
2019-03-22T08:15:53.806Z,20.92
2019-03-22T08:16:53.628Z,20.92
2019-03-22T08:18:53.666Z,20.94
2019-03-22T08:19:53.713Z,20.93
2019-03-22T08:20:53.826Z,20.96
2019-03-22T08:24:53.788Z,20.94
2019-03-22T08:26:53.535Z,20.98
2019-03-22T08:27:53.658Z,20.98
2019-03-22T08:29:53.628Z,20.98
2019-03-22T08:30:53.713Z,20.99
2019-03-22T08:31:53.483Z,21
2019-03-22T08:32:53.757Z,20.99
2019-03-22T08:34:53.636Z,21.02
2019-03-22T08:35:53.679Z,21.03
2019-03-22T08:36:53.857Z,21.03
2019-03-22T08:37:53.722Z,21.03
2019-03-22T08:39:55.852Z,21.05
2019-03-22T08:40:53.502Z,21.08
2019-03-22T08:41:53.800Z,21.07
2019-03-22T08:42:53.511Z,21.07
2019-03-22T08:44:53.531Z,21.09
2019-03-22T08:45:53.532Z,21.1
2019-03-22T08:47:53.731Z,21.1
2019-03-22T08:48:53.503Z,21.13
2019-03-22T08:49:53.648Z,21.12
2019-03-22T08:50:53.714Z,21.12
2019-03-22T08:52:53.644Z,21.13
2019-03-22T08:53:55.354Z,21.14
2019-03-22T08:54:53.710Z,21.14
2019-03-22T08:55:53.677Z,21.16
2019-03-22T08:57:53.727Z,21.16
2019-03-22T08:58:53.729Z,21.18
2019-03-22T08:59:53.508Z,21.21
2019-03-22T09:01:53.547Z,21.23
2019-03-22T09:02:53.673Z,21.21
2019-03-22T09:03:53.732Z,21.22
2019-03-22T09:04:53.539Z,21.22
2019-03-22T09:06:53.744Z,21.23
2019-03-22T09:07:53.609Z,21.21
2019-03-22T09:09:53.701Z,21.19
2019-03-22T09:10:53.768Z,21.18
2019-03-22T09:11:53.709Z,21.17
2019-03-22T09:12:53.458Z,21.17
2019-03-22T09:14:53.759Z,21.16
2019-03-22T09:15:53.810Z,21.16
2019-03-22T09:16:53.838Z,21.15
2019-03-22T09:17:53.671Z,21.15
2019-03-22T09:19:53.503Z,21.14
2019-03-22T09:20:53.578Z,21.14
2019-03-22T09:21:53.542Z,21.14
2019-03-22T09:22:53.553Z,21.15
2019-03-22T09:24:53.618Z,21.15
2019-03-22T09:26:53.644Z,21.15
2019-03-22T09:27:53.801Z,21.14
2019-03-22T09:28:53.795Z,21.13
2019-03-22T09:29:53.826Z,21.14
2019-03-22T09:31:53.873Z,21.13
2019-03-22T09:32:53.699Z,21.13
2019-03-22T09:33:53.592Z,21.12
2019-03-22T09:34:53.520Z,21.14
2019-03-22T09:36:53.605Z,21.15
2019-03-22T09:37:53.625Z,21.17
2019-03-22T09:38:53.602Z,21.16
2019-03-22T09:39:53.696Z,21.17
2019-03-22T09:41:53.638Z,21.18
2019-03-22T09:42:53.762Z,21.2
2019-03-22T09:43:53.685Z,21.21
2019-03-22T09:45:53.696Z,21.2
2019-03-22T09:46:53.720Z,21.21
2019-03-22T09:47:53.736Z,21.21
2019-03-22T09:48:53.717Z,21.23
2019-03-22T09:50:53.440Z,21.23
2019-03-22T09:52:53.523Z,21.24
2019-03-22T09:53:53.443Z,21.27
2019-03-22T09:54:53.531Z,21.26
2019-03-22T09:55:53.682Z,21.27
2019-03-22T09:57:53.639Z,21.23
2019-03-22T09:58:53.606Z,21.21
2019-03-22T09:59:53.596Z,21.23
2019-03-22T10:00:53.633Z,21.24
2019-03-22T10:03:53.664Z,21.27
2019-03-22T10:04:53.700Z,21.26
2019-03-22T10:05:53.788Z,21.28
2019-03-22T10:07:53.501Z,21.28
2019-03-22T10:09:53.533Z,21.28
2019-03-22T10:10:53.467Z,21.29
2019-03-22T10:11:53.766Z,21.28
2019-03-22T10:12:53.541Z,21.25
2019-03-22T10:15:53.612Z,21.21
2019-03-22T10:16:53.687Z,21.22
2019-03-22T10:17:53.661Z,21.21
2019-03-22T10:18:53.566Z,21.2
2019-03-22T10:20:53.716Z,21.19
2019-03-22T10:21:53.798Z,21.21
2019-03-22T10:23:53.803Z,21.22
2019-03-22T10:25:53.461Z,21.21
2019-03-22T10:27:53.671Z,21.21
2019-03-22T10:28:53.621Z,21.21
2019-03-22T10:29:53.582Z,21.19
2019-03-22T10:30:53.561Z,21.19
2019-03-22T10:32:53.820Z,21.19
2019-03-22T10:33:53.589Z,21.19
2019-03-22T10:35:53.613Z,21.2
2019-03-22T10:36:53.477Z,21.2
2019-03-22T10:38:00.300Z,21.23
2019-03-22T10:38:53.653Z,21.22
2019-03-22T10:40:53.731Z,21.26
2019-03-22T10:41:53.708Z,21.25
2019-03-22T10:43:53.475Z,21.28
2019-03-22T10:44:53.584Z,21.28
2019-03-22T10:45:53.518Z,21.31
2019-03-22T10:46:53.572Z,21.3
2019-03-22T10:48:53.584Z,21.3
2019-03-22T10:49:53.457Z,21.31
2019-03-22T10:50:53.593Z,21.32
2019-03-22T10:51:57.189Z,21.34
2019-03-22T10:53:53.750Z,21.36
2019-03-22T10:55:53.808Z,21.37
2019-03-22T10:57:55.428Z,21.39
2019-03-22T10:58:53.705Z,21.39
2019-03-22T10:59:53.792Z,21.41
2019-03-22T11:00:53.478Z,21.41
2019-03-22T11:02:53.495Z,21.44
2019-03-22T11:03:53.563Z,21.43
2019-03-22T11:04:53.528Z,21.45
2019-03-22T11:05:53.420Z,21.46
2019-03-22T11:07:53.554Z,21.46
2019-03-22T11:08:53.573Z,21.47
2019-03-22T11:10:53.622Z,21.48
2019-03-22T11:11:53.647Z,21.49
2019-03-22T11:12:53.635Z,21.48
2019-03-22T11:13:53.434Z,21.5
2019-03-22T11:15:54.011Z,21.5
2019-03-22T11:16:53.554Z,21.49
2019-03-22T11:17:53.609Z,21.5
2019-03-22T11:18:53.499Z,21.51
2019-03-22T11:20:53.531Z,21.5
2019-03-22T11:21:53.566Z,21.52
2019-03-22T11:22:53.400Z,21.52
2019-03-22T11:23:53.577Z,21.53
2019-03-22T11:26:00.257Z,21.55
2019-03-22T11:26:53.612Z,21.52
2019-03-22T11:27:53.622Z,21.52
2019-03-22T11:29:53.656Z,21.55
2019-03-22T11:30:53.484Z,21.55
2019-03-22T11:31:53.782Z,21.54
2019-03-22T11:32:53.715Z,21.54
2019-03-22T11:34:53.453Z,21.55
2019-03-22T11:35:53.463Z,21.56
2019-03-22T11:37:53.800Z,21.54
2019-03-22T11:38:53.507Z,21.55
2019-03-22T11:39:53.417Z,21.52
2019-03-22T11:40:53.646Z,21.56
2019-03-22T11:42:53.621Z,21.52
2019-03-22T11:43:53.588Z,21.53
2019-03-22T11:44:53.585Z,21.54
2019-03-22T11:45:53.676Z,21.54
2019-03-22T11:47:53.419Z,21.54
2019-03-22T11:48:53.656Z,21.56
2019-03-22T11:49:53.775Z,21.54
2019-03-22T11:51:53.562Z,21.54
2019-03-22T11:52:53.491Z,21.56
2019-03-22T11:53:53.627Z,21.56
2019-03-22T11:54:53.520Z,21.55
2019-03-22T11:56:53.445Z,21.56
2019-03-22T11:57:53.627Z,21.54
2019-03-22T11:58:53.586Z,21.55
2019-03-22T11:59:53.714Z,21.55
2019-03-22T12:03:53.670Z,21.52
2019-03-22T12:04:53.681Z,21.5
2019-03-22T12:05:53.738Z,21.49
2019-03-22T12:06:53.697Z,21.49
2019-03-22T12:08:53.454Z,21.47
2019-03-22T12:09:53.493Z,21.47
2019-03-22T12:10:53.458Z,21.46
2019-03-22T12:11:53.490Z,21.44
2019-03-22T12:13:53.511Z,21.45
2019-03-22T12:14:53.527Z,21.43
2019-03-22T12:15:53.531Z,21.43
2019-03-22T12:16:53.564Z,21.43
2019-03-22T12:18:53.592Z,21.42
2019-03-22T12:19:53.693Z,21.42
2019-03-22T12:20:54.069Z,21.4
2019-03-22T12:21:53.714Z,21.41
2019-03-22T12:23:53.577Z,21.39
2019-03-22T12:24:53.584Z,21.39
2019-03-22T12:25:53.442Z,21.38
2019-03-22T12:26:53.510Z,21.38
2019-03-22T12:28:53.543Z,21.37
2019-03-22T12:29:53.566Z,21.36
2019-03-22T12:31:53.676Z,21.35
2019-03-22T12:32:53.601Z,21.36
2019-03-22T12:34:01.672Z,21.35
2019-03-22T12:35:04.906Z,21.37
2019-03-22T12:36:53.690Z,21.38
2019-03-22T12:37:53.662Z,21.39
2019-03-22T12:38:53.507Z,21.39
2019-03-22T12:39:53.544Z,21.39
2019-03-22T12:41:53.825Z,21.39
2019-03-22T12:42:53.837Z,21.38
2019-03-22T12:43:53.434Z,21.4
2019-03-22T12:44:53.487Z,21.39
2019-03-22T12:46:53.532Z,21.39
2019-03-22T12:47:53.548Z,21.41
2019-03-22T12:49:53.581Z,21.39
2019-03-22T12:50:53.581Z,21.39
2019-03-22T12:51:53.484Z,21.38
2019-03-22T12:52:53.604Z,21.37
2019-03-22T12:54:53.709Z,21.37
2019-03-22T12:55:53.671Z,21.36
2019-03-22T12:56:53.467Z,21.37
2019-03-22T12:58:53.515Z,21.36
2019-03-22T12:59:53.521Z,21.34
2019-03-22T13:00:53.529Z,21.34
2019-03-22T13:01:53.455Z,21.33
2019-03-22T13:03:53.972Z,21.33
2019-03-22T13:04:53.550Z,21.32
2019-03-22T13:06:53.652Z,21.32
2019-03-22T13:07:53.687Z,21.3
2019-03-22T13:09:53.541Z,21.31
2019-03-22T13:10:53.673Z,21.31
2019-03-22T13:11:53.512Z,21.29
2019-03-22T13:13:53.453Z,21.29
2019-03-22T13:15:53.457Z,21.28
2019-03-22T13:16:53.463Z,21.28
2019-03-22T13:17:53.481Z,21.27
2019-03-22T13:18:53.421Z,21.26
2019-03-22T13:20:53.628Z,21.27
2019-03-22T13:21:53.548Z,21.26
2019-03-22T13:23:53.557Z,21.26
2019-03-22T13:24:54.018Z,21.25
2019-03-22T13:25:53.774Z,21.24
2019-03-22T13:27:53.742Z,21.24
2019-03-22T13:28:53.449Z,21.23
2019-03-22T13:30:53.546Z,21.21
2019-03-22T13:31:53.466Z,21.22
2019-03-22T13:32:53.393Z,21.2
2019-03-22T13:33:53.525Z,21.21
2019-03-22T13:35:53.531Z,21.22
2019-03-22T13:36:53.598Z,21.21
2019-03-22T13:37:53.654Z,21.2
2019-03-22T13:39:53.670Z,21.2
2019-03-22T13:40:53.594Z,21.2
2019-03-22T13:41:53.384Z,21.21
2019-03-22T13:42:53.666Z,21.2
2019-03-22T13:44:53.342Z,21.18
2019-03-22T13:45:53.464Z,21.18
2019-03-22T13:46:53.601Z,21.16
2019-03-22T13:48:53.470Z,21.14
2019-03-22T13:49:53.463Z,21.12
2019-03-22T13:50:53.685Z,21.08
2019-03-22T13:51:53.669Z,21.07
2019-03-22T13:53:53.618Z,21.05
2019-03-22T13:54:53.533Z,21.04
2019-03-22T13:55:53.571Z,21.03
2019-03-22T13:56:53.373Z,21
2019-03-22T13:58:53.703Z,21
2019-03-22T13:59:53.692Z,20.99
2019-03-22T14:00:53.431Z,20.99
2019-03-22T14:01:53.425Z,20.98
2019-03-22T14:04:53.395Z,20.96
2019-03-22T14:05:53.526Z,20.96
2019-03-22T14:06:53.536Z,20.95
2019-03-22T14:07:53.926Z,20.94
2019-03-22T14:09:53.544Z,20.95
2019-03-22T14:10:53.625Z,20.93
2019-03-22T14:11:53.603Z,20.93
2019-03-22T14:12:53.353Z,20.92
2019-03-22T14:14:53.651Z,20.92
2019-03-22T14:15:53.638Z,20.91
2019-03-22T14:16:54.071Z,20.9
2019-03-22T14:17:53.378Z,20.89
2019-03-22T14:19:53.380Z,20.89
2019-03-22T14:20:53.565Z,20.89
2019-03-22T14:21:53.440Z,20.88
2019-03-22T14:22:53.985Z,20.87
2019-03-22T14:24:53.519Z,20.86
2019-03-22T14:25:53.532Z,20.85
2019-03-22T14:26:53.689Z,20.87
2019-03-22T14:27:53.605Z,20.86
2019-03-22T14:30:53.888Z,20.82
2019-03-22T14:31:53.680Z,20.82
2019-03-22T14:32:53.606Z,20.83
2019-03-22T14:33:53.407Z,20.82
2019-03-22T14:53:49.704Z,20.93
2019-03-22T14:54:49.557Z,20.83
2019-03-22T14:55:49.607Z,20.79
2019-03-22T14:56:51.682Z,20.74
2019-03-22T14:57:52.207Z,20.7
2019-03-22T14:58:49.686Z,20.68
2019-03-22T14:59:58.522Z,20.65
2019-03-22T15:00:49.631Z,20.62
2019-03-22T15:01:49.651Z,20.61
2019-03-22T15:02:49.772Z,20.59
2019-03-22T15:03:49.787Z,20.57
2019-03-22T15:04:50.115Z,20.56
2019-03-22T15:05:49.791Z,20.57
2019-03-22T15:06:49.587Z,20.55
2019-03-22T15:07:49.723Z,20.55
2019-03-22T15:08:49.748Z,20.55
2019-03-22T15:09:49.771Z,20.52
2019-03-22T15:10:49.627Z,20.52
2019-03-22T15:11:49.839Z,20.52
2019-03-22T15:12:49.527Z,20.51
2019-03-22T15:13:49.696Z,20.51
2019-03-22T15:14:49.531Z,20.5
2019-03-22T15:15:49.596Z,20.5
2019-03-22T15:16:49.666Z,20.49
2019-03-22T15:17:49.649Z,20.48
2019-03-22T15:18:49.527Z,20.48
2019-03-22T15:19:49.642Z,20.47
2019-03-22T15:20:49.635Z,20.46
2019-03-22T15:21:49.244Z,20.45
2019-03-22T15:22:49.122Z,20.43
2019-03-22T15:23:49.446Z,20.44
2019-03-22T15:24:49.288Z,20.42
2019-03-22T15:25:49.304Z,20.41
2019-03-22T15:26:49.311Z,20.4
2019-03-22T15:27:49.390Z,20.41
2019-03-22T15:28:49.412Z,20.4
2019-03-22T15:29:49.145Z,20.4
2019-03-22T15:30:49.213Z,20.39
2019-03-22T15:31:49.161Z,20.39
2019-03-22T15:32:49.230Z,20.39
2019-03-22T15:33:49.331Z,20.36
2019-03-22T15:34:49.095Z,20.36
2019-03-22T15:35:49.731Z,20.34
2019-03-22T15:36:49.227Z,20.34
2019-03-22T15:37:49.337Z,20.34
2019-03-22T15:38:49.367Z,20.34
2019-03-22T15:39:49.275Z,20.34
2019-03-22T15:40:49.275Z,20.33
2019-03-22T15:41:49.289Z,20.34
2019-03-22T15:42:49.423Z,20.33
2019-03-22T15:43:49.322Z,20.33
2019-03-22T15:44:49.410Z,20.32
2019-03-22T15:45:49.335Z,20.3
2019-03-22T15:46:49.340Z,20.33
2019-03-22T15:47:49.371Z,20.32
2019-03-22T15:48:49.466Z,20.32
2019-03-22T15:49:49.102Z,20.33
2019-03-22T15:50:49.256Z,20.31
2019-03-22T15:51:49.149Z,20.31
2019-03-22T15:52:49.222Z,20.31
2019-03-22T15:53:49.168Z,20.3
2019-03-22T15:54:49.159Z,20.33
2019-03-22T15:55:49.210Z,20.33
2019-03-22T15:56:49.306Z,20.34
2019-03-22T15:57:49.264Z,20.35
2019-03-22T15:58:49.236Z,20.36
2019-03-22T15:59:49.320Z,20.36
2019-03-22T16:00:49.133Z,20.38
2019-03-22T16:01:49.266Z,20.39
2019-03-22T16:02:49.315Z,20.39
2019-03-22T16:03:49.273Z,20.4
2019-03-22T16:04:49.338Z,20.4
2019-03-22T16:05:49.339Z,20.4
2019-03-22T16:06:49.346Z,20.4
2019-03-22T16:07:49.240Z,20.41
2019-03-22T16:08:49.151Z,20.41
2019-03-22T16:09:49.207Z,20.42
2019-03-22T16:10:49.166Z,20.42
2019-03-22T16:11:49.180Z,20.43
2019-03-22T16:12:49.175Z,20.43
2019-03-22T16:13:49.214Z,20.43
2019-03-22T16:14:49.355Z,20.44
2019-03-22T16:15:49.284Z,20.45
2019-03-22T16:16:50.116Z,20.45
2019-03-22T16:17:49.242Z,20.45
2019-03-22T16:18:49.398Z,20.45
2019-03-22T16:19:49.511Z,20.44
2019-03-22T16:20:52.370Z,20.43
2019-03-22T16:21:49.378Z,20.44
2019-03-22T16:22:49.319Z,20.43
2019-03-22T16:23:49.315Z,20.42
2019-03-22T16:24:49.362Z,20.42
2019-03-22T16:25:49.362Z,20.41
2019-03-22T16:26:49.334Z,20.41
2019-03-22T16:27:49.091Z,20.41
2019-03-22T16:28:49.106Z,20.4
2019-03-22T16:29:49.243Z,20.4
2019-03-22T16:30:49.109Z,20.39
2019-03-22T16:31:49.159Z,20.38
2019-03-22T16:32:49.188Z,20.37
2019-03-22T16:33:54.229Z,20.37
2019-03-22T16:34:49.144Z,20.35
2019-03-22T16:35:49.196Z,20.34
2019-03-22T16:36:49.209Z,20.33
2019-03-22T16:37:49.238Z,20.33
2019-03-22T16:38:49.067Z,20.33
2019-03-22T16:39:49.278Z,20.32
2019-03-22T16:40:49.497Z,20.31
2019-03-22T16:41:49.317Z,20.3
2019-03-22T16:42:49.310Z,20.29
2019-03-22T16:43:49.312Z,20.29
2019-03-22T16:44:49.081Z,20.28
2019-03-22T16:45:49.286Z,20.27
2019-03-22T16:46:49.188Z,20.27
2019-03-22T16:47:49.160Z,20.26
2019-03-22T16:48:49.271Z,20.25
2019-03-22T16:49:49.153Z,20.25
2019-03-22T16:50:49.162Z,20.24
2019-03-22T16:51:49.326Z,20.24
2019-03-22T16:52:49.097Z,20.23
2019-03-22T16:53:49.313Z,20.23
2019-03-22T16:54:49.218Z,20.23
2019-03-22T16:55:49.243Z,20.21
2019-03-22T16:56:49.385Z,20.22
2019-03-22T16:57:49.397Z,20.21
2019-03-22T16:58:49.324Z,20.21
2019-03-22T16:59:49.382Z,20.2
2019-03-22T17:00:49.960Z,20.2
2019-03-22T17:01:49.429Z,20.19
2019-03-22T17:02:49.613Z,20.19
2019-03-22T17:03:49.079Z,20.18
2019-03-22T17:04:49.243Z,20.17
2019-03-22T17:05:49.107Z,20.17
2019-03-22T17:06:49.340Z,20.15
2019-03-22T17:07:49.188Z,20.15
2019-03-22T17:08:49.156Z,20.15
2019-03-22T17:09:49.157Z,20.16
2019-03-22T17:10:49.170Z,20.15